»·PEaware :: UAL1399 KSEA-CYYC

UAL1399 :: KSEA-CYYC

FLIGHT INFORMATION

Flight Status: Arrived
Operator:
United Airlines
More flights by this operator :: More flights under this callsign
Pilot: David C. (16084)
Aircraft: AIRBUS A320
(A320)
More flights by this aircraft type
Origin: KSEA Seattle-Tacoma Intl
United States
Destination: CYYC Calgary Intl
Canada
More flights between these airports :: More routes between these airports
Route: +SEA6 ALPSE YDC MENBO NORET IGVEP4
File this flight plan on PilotEdge
Remarks:
Altitude:
(Current/Filed)
31,000ft
Speed:
(Current/Filed)
478kts
Departed: 09-Aug-18 10:35 AM
Arrived: 09-Aug-18 11:42 AM
Distance/Time
Traveled:
392nm/1:07
Distance/Time
To Go:
Arrived

Flight Plot

Page will automatically refresh every two minutes.

Flight plan parsing failed; only flown route is shown


Map Options




Map Legend


Flown Route
Filed Route
Departure Airport
Arrival Airport
Navaid (VOR, NDB)
Fix

Horizontal Profiles

Position Reports

Time Latitude Longitude Heading Altitude Ground
Speed
09-Aug-18 10:14 47.439328 -122.298233 88 442ft 0kts
09-Aug-18 10:15 47.439328 -122.298233 88 442ft 0kts
09-Aug-18 10:16 47.439328 -122.298233 88 442ft 0kts
09-Aug-18 10:17 47.439328 -122.298233 88 442ft 0kts
09-Aug-18 10:18 47.439328 -122.298233 88 442ft 0kts
09-Aug-18 10:19 47.439328 -122.298233 88 442ft 0kts
09-Aug-18 10:20 47.439328 -122.298233 88 442ft 0kts
09-Aug-18 10:21 47.439326 -122.298380 88 442ft 0kts
09-Aug-18 10:22 47.439124 -122.299181 48 442ft 2kts
09-Aug-18 10:23 47.438687 -122.299582 13 442ft 1kts
09-Aug-18 10:24 47.438672 -122.299587 14 442ft 0kts
09-Aug-18 10:25 47.438672 -122.299587 14 442ft 0kts
09-Aug-18 10:26 47.438672 -122.299587 14 442ft 0kts
09-Aug-18 10:27 47.438672 -122.299587 14 442ft 0kts
09-Aug-18 10:28 47.440130 -122.300716 312 442ft 14kts
09-Aug-18 10:29 47.441942 -122.306351 0 442ft 22kts
09-Aug-18 10:30 47.448816 -122.306288 0 442ft 27kts
09-Aug-18 10:31 47.456262 -122.306162 1 442ft 23kts
09-Aug-18 10:32 47.462545 -122.306127 0 442ft 18kts
09-Aug-18 10:33 47.463546 -122.306278 324 442ft 0kts
09-Aug-18 10:34 47.463546 -122.306278 324 442ft 0kts
09-Aug-18 10:35 47.463190 -122.307739 182 442ft 0kts
09-Aug-18 10:36 47.435213 -122.308132 183 1257ft 187kts
09-Aug-18 10:37 47.377517 -122.308817 181 4635ft 218kts
09-Aug-18 10:38 47.317416 -122.306084 181 8146ft 222kts
09-Aug-18 10:39 47.258884 -122.287901 132 11503ft 237kts
09-Aug-18 10:40 47.281913 -122.199305 21 13722ft 315kts
09-Aug-18 10:41 47.373540 -122.184231 2 15164ft 339kts
09-Aug-18 10:42 47.469933 -122.172806 2 17590ft 357kts
09-Aug-18 10:43 47.570292 -122.160189 2 20164ft 372kts
09-Aug-18 10:44 47.675214 -122.146836 2 22506ft 386kts
09-Aug-18 10:45 47.782289 -122.133154 1 24052ft 396kts
09-Aug-18 10:46 47.894393 -122.118728 1 25689ft 419kts
09-Aug-18 10:47 48.011818 -122.103552 1 27426ft 431kts
09-Aug-18 10:48 48.130981 -122.088017 3 28917ft 445kts
09-Aug-18 10:49 48.233206 -121.992761 42 30934ft 443kts
09-Aug-18 10:50 48.328023 -121.862885 42 31141ft 483kts
09-Aug-18 10:51 48.430534 -121.721858 42 31133ft 516kts
09-Aug-18 10:52 48.535269 -121.577066 42 31130ft 518kts
09-Aug-18 10:53 48.640434 -121.430741 42 31105ft 518kts
09-Aug-18 10:54 48.743129 -121.286969 43 31105ft 518kts
09-Aug-18 10:55 48.847897 -121.139417 42 31108ft 517kts
09-Aug-18 10:56 48.952543 -120.991168 41 31134ft 514kts
09-Aug-18 10:57 49.056175 -120.843463 41 31165ft 511kts
09-Aug-18 10:58 49.158259 -120.697069 40 31152ft 513kts
09-Aug-18 10:59 49.262225 -120.547105 40 31180ft 515kts
09-Aug-18 11:00 49.365134 -120.394674 48 31201ft 518kts
09-Aug-18 11:01 49.427043 -120.199129 68 31213ft 519kts
09-Aug-18 11:02 49.480105 -119.993991 68 31111ft 518kts
09-Aug-18 11:03 49.532923 -119.787760 68 31102ft 518kts
09-Aug-18 11:04 49.585269 -119.581464 68 31110ft 518kts
09-Aug-18 11:05 49.637150 -119.375125 68 31120ft 518kts
09-Aug-18 11:06 49.688316 -119.169750 69 31124ft 518kts
09-Aug-18 11:07 49.739638 -118.961823 69 31127ft 518kts
09-Aug-18 11:08 49.790314 -118.754601 68 31148ft 514kts
09-Aug-18 11:09 49.839614 -118.551106 68 31122ft 513kts
09-Aug-18 11:10 49.887777 -118.350436 68 31147ft 512kts
09-Aug-18 11:11 49.933840 -118.156783 68 31156ft 512kts
09-Aug-18 11:12 49.981223 -117.955764 68 31163ft 512kts
09-Aug-18 11:13 50.029355 -117.749633 68 31168ft 513kts
09-Aug-18 11:14 50.077364 -117.542029 68 31173ft 513kts
09-Aug-18 11:15 50.122052 -117.346975 69 31175ft 513kts
09-Aug-18 11:16 50.168913 -117.140474 69 31192ft 513kts
09-Aug-18 11:17 50.215760 -116.931979 68 31228ft 511kts
09-Aug-18 11:18 50.261876 -116.724730 67 31251ft 506kts
09-Aug-18 11:19 50.307675 -116.516791 67 31219ft 505kts
09-Aug-18 11:20 50.352218 -116.312581 68 31222ft 505kts
09-Aug-18 11:21 50.397430 -116.103790 68 30723ft 506kts
09-Aug-18 11:22 50.443653 -115.895777 68 29762ft 508kts
09-Aug-18 11:23 50.489332 -115.686554 68 28805ft 509kts
09-Aug-18 11:24 50.535053 -115.475779 68 27787ft 506kts
09-Aug-18 11:25 50.579269 -115.269639 70 24642ft 504kts
09-Aug-18 11:26 50.623062 -115.063253 70 21769ft 489kts
09-Aug-18 11:27 50.664918 -114.865157 70 18981ft 470kts
09-Aug-18 11:28 50.706324 -114.673825 61 16162ft 450kts
09-Aug-18 11:29 50.786051 -114.530432 43 13411ft 428kts
09-Aug-18 11:30 50.868411 -114.402955 42 11241ft 395kts
09-Aug-18 11:31 50.940803 -114.289871 45 10499ft 340kts
09-Aug-18 11:32 51.001788 -114.189483 44 9816ft 301kts
09-Aug-18 11:33 51.077973 -114.164345 358 8572ft 282kts
09-Aug-18 11:34 51.149525 -114.164613 358 8155ft 247kts
09-Aug-18 11:35 51.217681 -114.164791 358 7760ft 246kts
09-Aug-18 11:36 51.286582 -114.164961 358 6923ft 249kts
09-Aug-18 11:37 51.339099 -114.121410 79 6074ft 220kts
09-Aug-18 11:38 51.314509 -114.046795 142 6024ft 202kts
09-Aug-18 11:39 51.264255 -114.021600 180 6023ft 181kts
09-Aug-18 11:40 51.215684 -114.021300 181 5235ft 171kts
09-Aug-18 11:41 51.174425 -114.021326 181 4423ft 140kts
09-Aug-18 11:42 51.135417 -114.021366 181 3690ft 140kts
09-Aug-18 11:43 51.112581 -114.020273 148 3566ft 19kts
09-Aug-18 11:44 51.114999 -114.017973 0 3566ft 23kts
09-Aug-18 11:45 51.121384 -114.015877 19 3566ft 25kts
09-Aug-18 11:46 51.126738 -114.013629 44 3566ft 26kts
09-Aug-18 11:47 51.129089 -114.009324 94 3566ft 0kts
09-Aug-18 11:48 51.129089 -114.009325 94 3566ft 0kts

Navigation Log

Ident Type
Flight plan parsing failed, navigation log unavailable